Time;durP1;ratioP1;P1;durP2;ratioP2;P2;SDS_P1;SDS_P2;PMS_P1;PMS_P2;Temp;Humidity;BMP_temperature;BMP_pressure;BME280_temperature;BME280_humidity;BME280_pressure;Samples;Min_cycle;Max_cycle;Signal;HPM_P1;HPM_P2
2023/06/26 00:01:23;;;;;;;10.73;8.52;;;20.40;99.90;;;;;;5119679;27;20434;-28
2023/06/26 00:03:49;;;;;;;12.30;9.15;;;20.40;99.90;;;;;;5137661;27;20043;-28
2023/06/26 00:06:15;;;;;;;10.05;9.05;;;20.40;99.90;;;;;;5119346;27;20054;-28
2023/06/26 00:08:40;;;;;;;13.48;9.93;;;20.40;99.90;;;;;;5137530;27;20043;-28
2023/06/26 00:11:06;;;;;;;10.80;9.45;;;20.40;99.90;;;;;;5137864;27;20472;-28
2023/06/26 00:13:32;;;;;;;11.85;9.43;;;20.40;99.90;;;;;;5137440;27;20134;-28
2023/06/26 00:16:00;;;;;;;10.68;8.77;;;20.40;99.90;;;;;;5138050;27;20047;-28
2023/06/26 00:18:25;;;;;;;11.77;9.65;;;20.30;99.90;;;;;;5138250;27;20058;-28
2023/06/26 00:20:51;;;;;;;11.63;9.50;;;20.30;99.90;;;;;;5119274;27;20469;-28
2023/06/26 00:23:19;;;;;;;13.32;9.35;;;20.30;99.90;;;;;;5137642;27;20179;-28
2023/06/26 00:25:45;;;;;;;11.45;8.32;;;20.40;99.90;;;;;;5137629;27;20112;-28
2023/06/26 00:28:10;;;;;;;13.50;8.85;;;20.40;99.90;;;;;;5137031;27;20047;-28
2023/06/26 00:30:36;;;;;;;10.57;9.23;;;20.40;99.90;;;;;;5137188;27;20130;-28
2023/06/26 00:33:02;;;;;;;10.35;8.38;;;20.40;99.90;;;;;;5137393;27;20050;-28
2023/06/26 00:35:27;;;;;;;10.95;8.95;;;20.40;99.90;;;;;;5137623;27;20421;-28
2023/06/26 00:37:53;;;;;;;11.18;9.20;;;20.40;99.90;;;;;;5136739;27;20039;-28
2023/06/26 00:40:19;;;;;;;9.75;8.75;;;20.40;99.90;;;;;;5136944;27;20130;-28
2023/06/26 00:42:45;;;;;;;9.57;8.57;;;20.30;99.90;;;;;;5137739;27;20099;-29
2023/06/26 00:45:13;;;;;;;9.75;8.63;;;20.30;99.90;;;;;;5136942;27;20385;-28
2023/06/26 00:47:40;;;;;;;13.15;9.63;;;20.30;99.90;;;;;;5101702;27;20043;-28
2023/06/26 00:50:10;;;;;;;11.10;9.02;;;20.30;99.90;;;;;;5117705;27;20491;-29
2023/06/26 00:52:37;;;;;;;10.95;9.02;;;20.30;99.90;;;;;;5097763;28;20055;-28
2023/06/26 00:55:06;;;;;;;12.00;9.43;;;20.30;99.90;;;;;;5114519;28;20048;-28
2023/06/26 00:57:32;;;;;;;11.50;9.43;;;20.30;99.90;;;;;;5098487;28;20146;-28
2023/06/26 01:00:00;;;;;;;11.80;9.10;;;20.20;99.90;;;;;;5098141;28;20051;-28
2023/06/26 01:02:33;;;;;;;10.00;8.95;;;20.20;99.90;;;;;;5116111;28;20405;-31
2023/06/26 01:05:06;;;;;;;10.15;8.35;;;20.20;99.90;;;;;;5116034;28;20044;-29
2023/06/26 01:07:37;;;;;;;10.85;9.52;;;20.20;99.90;;;;;;5098191;28;20086;-28
2023/06/26 01:10:07;;;;;;;11.82;9.35;;;20.20;99.90;;;;;;5098606;28;20100;-28
2023/06/26 01:12:34;;;;;;;11.52;8.75;;;20.20;99.90;;;;;;5114597;28;20386;-28
2023/06/26 01:15:01;;;;;;;9.98;8.90;;;20.20;99.90;;;;;;5114628;28;20059;-28
2023/06/26 01:17:34;;;;;;;10.23;8.90;;;20.20;99.90;;;;;;5114313;28;20050;-28
2023/06/26 01:20:01;;;;;;;9.73;8.68;;;20.30;99.90;;;;;;5114662;28;20086;-28
2023/06/26 01:22:33;;;;;;;12.60;9.52;;;20.30;99.90;;;;;;5115651;28;20043;-28
2023/06/26 01:25:22;;;;;;;10.55;9.02;;;20.30;99.90;;;;;;5115568;28;20044;-28
2023/06/26 01:27:52;;;;;;;10.27;8.93;;;20.30;99.90;;;;;;5115398;28;20043;-29
2023/06/26 01:30:19;;;;;;;11.15;9.27;;;20.30;99.90;;;;;;5115466;28;20083;-28
2023/06/26 01:32:46;;;;;;;11.75;9.57;;;20.20;99.90;;;;;;5115399;28;20197;-29
2023/06/26 01:35:13;;;;;;;10.45;9.45;;;20.20;99.90;;;;;;5115416;28;20066;-28
2023/06/26 01:37:39;;;;;;;12.27;10.07;;;20.10;99.90;;;;;;5116172;28;20477;-28
2023/06/26 01:40:05;;;;;;;13.93;9.85;;;20.00;99.90;;;;;;5114055;28;20500;-28
2023/06/26 01:42:34;;;;;;;12.48;9.10;;;20.00;99.90;;;;;;5115119;28;20051;-28
2023/06/26 01:45:10;;;;;;;11.38;9.43;;;20.00;1.00;;;;;;5115204;28;20086;-28
2023/06/26 01:47:40;;;;;;;10.38;8.95;;;20.00;99.90;;;;;;5113904;28;20050;-28
2023/06/26 01:50:11;;;;;;;10.18;8.98;;;20.00;99.90;;;;;;5113908;28;20130;-29
2023/06/26 01:52:49;;;;;;;10.57;8.93;;;20.10;99.90;;;;;;5113692;28;20063;-28
2023/06/26 01:55:27;;;;;;;10.10;8.43;;;20.10;99.90;;;;;;5115906;28;20051;-28
2023/06/26 01:57:56;;;;;;;10.50;9.15;;;20.20;99.90;;;;;;5115279;28;20039;-29
2023/06/26 02:00:24;;;;;;;11.68;9.55;;;20.20;99.90;;;;;;5115437;28;20044;-28
2023/06/26 02:02:50;;;;;;;15.80;9.75;;;20.10;99.90;;;;;;5112829;28;20054;-28
2023/06/26 02:05:15;;;;;;;12.60;9.23;;;20.10;99.90;;;;;;5113573;28;20051;-29
2023/06/26 02:07:42;;;;;;;10.88;9.50;;;20.00;99.90;;;;;;5115282;28;20465;-28
2023/06/26 02:10:08;;;;;;;12.07;9.90;;;19.90;99.90;;;;;;5113767;28;20105;-28
2023/06/26 02:12:36;;;;;;;11.38;10.02;;;19.80;99.90;;;;;;5114068;28;20040;-28
2023/06/26 02:15:02;;;;;;;10.25;9.07;;;19.80;99.90;;;;;;5114680;28;20043;-28
2023/06/26 02:17:28;;;;;;;12.73;9.68;;;19.70;99.90;;;;;;5114653;28;20405;-28
2023/06/26 02:19:53;;;;;;;13.02;9.93;;;19.60;99.90;;;;;;5114441;28;20047;-28
2023/06/26 02:22:19;;;;;;;12.73;9.88;;;19.60;1.00;;;;;;5115076;28;20043;-28
2023/06/26 02:24:45;;;;;;;10.52;9.43;;;19.60;1.00;;;;;;5113323;28;20035;-28
2023/06/26 02:27:11;;;;;;;11.63;10.35;;;19.60;1.00;;;;;;5114336;28;20043;-28
2023/06/26 02:29:37;;;;;;;12.18;9.60;;;19.50;1.00;;;;;;5114264;28;20092;-28
2023/06/26 02:32:02;;;;;;;13.30;9.98;;;19.50;1.00;;;;;;5115506;28;20101;-28
2023/06/26 02:34:30;;;;;;;12.65;10.32;;;19.50;1.00;;;;;;5113718;28;20047;-28
2023/06/26 02:36:56;;;;;;;17.73;12.60;;;19.50;1.00;;;;;;5114007;28;20493;-28
2023/06/26 02:39:22;;;;;;;14.73;10.63;;;19.50;1.00;;;;;;5113098;28;20054;-28
2023/06/26 02:41:48;;;;;;;15.63;10.65;;;19.60;1.00;;;;;;5113551;28;20131;-28
2023/06/26 02:44:14;;;;;;;16.25;11.57;;;19.50;1.00;;;;;;5114087;28;20122;-28
2023/06/26 02:46:40;;;;;;;15.32;11.68;;;19.50;1.00;;;;;;5112709;28;20404;-28
2023/06/26 02:49:06;;;;;;;13.50;12.10;;;19.50;1.00;;;;;;5114394;28;20054;-27
2023/06/26 02:51:33;;;;;;;14.45;12.23;;;19.50;1.00;;;;;;5114997;28;20047;-28
2023/06/26 02:53:59;;;;;;;14.10;12.20;;;19.40;1.00;;;;;;5112946;28;20051;-28
2023/06/26 02:56:28;;;;;;;14.20;12.65;;;19.50;1.00;;;;;;5114157;28;20076;-28
2023/06/26 02:58:55;;;;;;;15.43;12.25;;;19.40;1.00;;;;;;5114048;28;20099;-28
2023/06/26 03:01:21;;;;;;;12.75;11.45;;;19.40;56.00;;;;;;5114080;28;20075;-28
2023/06/26 03:03:46;;;;;;;13.75;12.35;;;19.40;59.90;;;;;;5114047;28;20047;-29
2023/06/26 03:06:13;;;;;;;13.73;12.25;;;19.40;76.80;;;;;;5113063;28;20374;-28
2023/06/26 03:08:39;;;;;;;14.65;13.07;;;19.40;99.90;;;;;;5114533;28;20040;-28
2023/06/26 03:11:09;;;;;;;15.50;12.65;;;19.40;99.90;;;;;;5113984;28;20083;-28
2023/06/26 03:13:35;;;;;;;14.98;12.90;;;19.50;99.90;;;;;;5115695;28;20043;-29
2023/06/26 03:16:01;;;;;;;14.10;12.70;;;19.60;99.90;;;;;;5118102;28;20050;-28
2023/06/26 03:18:27;;;;;;;13.32;11.93;;;19.60;99.90;;;;;;5118085;28;20047;-28
2023/06/26 03:20:55;;;;;;;14.98;13.35;;;19.50;99.90;;;;;;5118540;28;20097;-27
2023/06/26 03:23:21;;;;;;;15.05;12.23;;;19.50;99.90;;;;;;5117960;28;20477;-28
2023/06/26 03:25:47;;;;;;;13.20;11.85;;;19.50;99.90;;;;;;5117894;28;20056;-28
2023/06/26 03:28:13;;;;;;;13.90;12.43;;;19.50;99.90;;;;;;5099877;28;20043;-28
2023/06/26 03:30:39;;;;;;;13.85;11.85;;;19.50;99.90;;;;;;5118663;28;20092;-28
2023/06/26 03:33:05;;;;;;;15.57;12.15;;;19.60;99.90;;;;;;5117448;28;20044;-27
2023/06/26 03:35:30;;;;;;;13.27;11.88;;;19.70;99.90;;;;;;5117785;28;20040;-28
2023/06/26 03:37:56;;;;;;;14.20;12.15;;;19.70;99.90;;;;;;5116705;28;20070;-28
2023/06/26 03:40:22;;;;;;;14.35;12.07;;;19.70;99.90;;;;;;5117637;28;20059;-28
2023/06/26 03:42:48;;;;;;;19.20;12.23;;;19.80;99.90;;;;;;5117570;28;20044;-28
2023/06/26 03:45:14;;;;;;;13.63;11.48;;;19.80;99.90;;;;;;5117491;28;20043;-28
2023/06/26 03:47:39;;;;;;;12.98;11.65;;;19.90;99.90;;;;;;5117926;28;20051;-28
2023/06/26 03:50:05;;;;;;;13.02;11.63;;;19.90;99.90;;;;;;5117394;28;20071;-28
2023/06/26 03:52:31;;;;;;;13.48;11.65;;;19.90;99.90;;;;;;5121492;27;20059;-28
2023/06/26 03:54:58;;;;;;;13.60;11.73;;;19.90;99.90;;;;;;5119361;27;20043;-28
2023/06/26 03:57:24;;;;;;;14.90;12.18;;;19.90;99.90;;;;;;5137845;27;20134;-28
2023/06/26 03:59:50;;;;;;;12.95;11.68;;;19.90;99.90;;;;;;5119484;27;20485;-28
2023/06/26 04:02:15;;;;;;;16.35;11.02;;;19.90;99.90;;;;;;5119645;27;20121;-28
2023/06/26 04:04:41;;;;;;;13.73;10.85;;;19.90;99.90;;;;;;5137696;27;20146;-28
2023/06/26 04:07:07;;;;;;;12.38;11.10;;;19.90;1.00;;;;;;5138216;27;20066;-28
2023/06/26 04:09:33;;;;;;;12.77;10.68;;;20.00;1.00;;;;;;5137597;27;20122;-28
2023/06/26 04:11:58;;;;;;;12.98;10.98;;;20.10;1.00;;;;;;5102236;27;20430;-28
2023/06/26 04:14:24;;;;;;;12.32;10.02;;;20.20;1.00;;;;;;5137508;27;20082;-29
2023/06/26 04:16:50;;;;;;;13.20;9.95;;;20.30;1.00;;;;;;5138265;27;20054;-28
2023/06/26 04:19:15;;;;;;;11.43;9.63;;;20.40;1.00;;;;;;5118956;27;20046;-28
2023/06/26 04:21:41;;;;;;;13.70;7.93;;;20.50;1.00;;;;;;5138232;27;20043;-28
2023/06/26 04:24:07;;;;;;;13.85;9.30;;;20.50;1.00;;;;;;5101741;27;20104;-27
2023/06/26 04:26:33;;;;;;;12.18;9.32;;;20.60;1.00;;;;;;5136629;27;20434;-29
2023/06/26 04:28:59;;;;;;;10.48;8.70;;;20.60;56.30;;;;;;5137229;27;20441;-28
2023/06/26 04:31:25;;;;;;;13.82;8.65;;;20.60;99.90;;;;;;5118801;27;20039;-28
2023/06/26 04:33:52;;;;;;;12.70;9.40;;;20.60;99.90;;;;;;5137208;27;20051;-28
2023/06/26 04:36:18;;;;;;;12.82;7.45;;;20.50;99.90;;;;;;5118983;27;20157;-27
2023/06/26 04:38:44;;;;;;;15.77;9.52;;;20.50;99.90;;;;;;5119782;27;20092;-28
2023/06/26 04:41:09;;;;;;;18.80;9.82;;;20.50;99.90;;;;;;5137796;27;20043;-28
2023/06/26 04:43:35;;;;;;;14.20;9.45;;;20.50;99.90;;;;;;5137565;27;20453;-28
2023/06/26 04:46:02;;;;;;;13.15;9.15;;;20.40;99.90;;;;;;5136927;27;20100;-28
2023/06/26 04:48:30;;;;;;;17.17;10.25;;;20.30;99.90;;;;;;5136867;27;20086;-27
2023/06/26 04:50:56;;;;;;;16.73;10.38;;;20.20;99.90;;;;;;5136498;27;20520;-27
2023/06/26 04:53:22;;;;;;;17.65;9.65;;;20.20;99.90;;;;;;5136709;27;20102;-27
2023/06/26 04:55:49;;;;;;;17.90;11.07;;;20.10;99.90;;;;;;5118893;27;20127;-27
2023/06/26 04:58:16;;;;;;;18.40;10.98;;;20.00;99.90;;;;;;5136731;27;20049;-27
2023/06/26 05:00:42;;;;;;;21.23;11.57;;;19.90;99.90;;;;;;5136657;27;20043;-28
2023/06/26 05:03:10;;;;;;;16.20;10.93;;;19.80;99.90;;;;;;5136666;27;20088;-28
2023/06/26 05:05:35;;;;;;;24.48;12.52;;;19.80;99.90;;;;;;5136536;27;20043;-27
2023/06/26 05:08:17;;;;;;;20.90;11.43;;;19.70;99.90;;;;;;5136420;27;20046;-28
2023/06/26 05:10:44;;;;;;;19.40;10.88;;;19.70;99.90;;;;;;5136453;27;20047;-27
2023/06/26 05:13:10;;;;;;;25.48;11.20;;;19.60;99.90;;;;;;5118603;27;20047;-27
2023/06/26 05:15:36;;;;;;;14.40;8.98;;;19.50;99.90;;;;;;5118125;27;20122;-28
2023/06/26 05:18:01;;;;;;;19.27;9.80;;;19.40;99.90;;;;;;5136277;27;20087;-28
2023/06/26 05:20:27;;;;;;;17.40;9.40;;;19.40;99.90;;;;;;5101254;27;20043;-28
2023/06/26 05:22:53;;;;;;;20.17;10.18;;;19.40;99.90;;;;;;5136993;27;20039;-28
2023/06/26 05:25:21;;;;;;;19.08;8.57;;;19.40;99.90;;;;;;5136750;27;20070;-27
2023/06/26 05:27:47;;;;;;;20.58;9.77;;;19.30;99.90;;;;;;5135973;27;20043;-27
2023/06/26 05:30:14;;;;;;;15.57;7.72;;;19.30;99.90;;;;;;5118051;27;20047;-27
2023/06/26 05:32:40;;;;;;;13.07;5.90;;;19.20;99.90;;;;;;5117514;27;20090;-27
2023/06/26 05:35:07;;;;;;;16.30;5.93;;;19.20;99.90;;;;;;5135955;27;20054;-27
2023/06/26 05:37:34;;;;;;;12.20;5.60;;;19.10;99.90;;;;;;5135533;27;20389;-27
2023/06/26 05:40:00;;;;;;;14.55;7.03;;;19.10;99.90;;;;;;5135907;27;20139;-28
2023/06/26 05:42:29;;;;;;;18.83;7.47;;;19.10;99.90;;;;;;5135796;27;20043;-27
2023/06/26 05:44:55;;;;;;;12.30;5.82;;;19.00;99.90;;;;;;5117652;27;20063;-28
2023/06/26 05:47:22;;;;;;;14.75;5.80;;;19.00;99.90;;;;;;5100387;27;20058;-28
2023/06/26 05:49:47;;;;;;;19.30;5.95;;;18.90;99.90;;;;;;5117314;27;20050;-27
2023/06/26 05:52:13;;;;;;;18.95;6.38;;;18.90;99.90;;;;;;5117168;27;20091;-27
2023/06/26 05:54:39;;;;;;;22.77;5.75;;;18.80;99.90;;;;;;5099852;27;20057;-28
2023/06/26 05:57:06;;;;;;;12.82;6.00;;;18.80;99.90;;;;;;5117321;27;20072;-27
2023/06/26 05:59:32;;;;;;;16.48;5.40;;;19.10;99.90;;;;;;5117205;27;20035;-27
2023/06/26 06:01:58;;;;;;;12.75;4.63;;;19.10;99.90;;;;;;5117151;27;20047;-28
2023/06/26 06:04:24;;;;;;;18.60;5.22;;;18.90;99.90;;;;;;5135303;27;20043;-28
2023/06/26 06:06:50;;;;;;;21.55;6.05;;;19.10;99.90;;;;;;5135345;27;20043;-28
2023/06/26 06:09:15;;;;;;;21.45;5.00;;;19.70;99.90;;;;;;5100193;27;20043;-28
2023/06/26 06:11:41;;;;;;;12.40;4.03;;;20.40;99.90;;;;;;5135788;27;20043;-27
2023/06/26 06:14:07;;;;;;;15.68;4.13;;;20.40;99.90;;;;;;5116957;27;20038;-27
2023/06/26 06:16:33;;;;;;;12.98;3.58;;;20.10;99.90;;;;;;5116826;27;20051;-27
2023/06/26 06:18:59;;;;;;;10.93;3.65;;;20.20;99.90;;;;;;5135669;27;20041;-27
2023/06/26 06:21:24;;;;;;;10.30;3.60;;;20.60;99.90;;;;;;5135601;27;20054;-28
2023/06/26 06:23:50;;;;;;;13.23;4.65;;;20.80;99.90;;;;;;5117192;27;20046;-28
2023/06/26 06:26:16;;;;;;;12.90;3.35;;;21.00;1.00;;;;;;5116789;27;20045;-27
2023/06/26 06:28:41;;;;;;;11.25;3.53;;;21.20;99.90;;;;;;5116828;27;20035;-29
2023/06/26 06:31:07;;;;;;;12.35;3.42;;;21.30;99.90;;;;;;5116501;27;20457;-28
2023/06/26 06:33:33;;;;;;;9.80;3.42;;;21.30;99.90;;;;;;5135431;27;20134;-27
2023/06/26 06:35:58;;;;;;;14.05;2.70;;;21.40;99.90;;;;;;5135413;27;20050;-27
2023/06/26 06:38:24;;;;;;;16.95;3.60;;;21.40;1.00;;;;;;5135108;27;20118;-28
2023/06/26 06:40:50;;;;;;;14.20;3.55;;;21.20;1.00;;;;;;5135389;27;20050;-28
2023/06/26 06:43:16;;;;;;;13.38;3.47;;;21.80;99.90;;;;;;5134819;27;20055;-28
2023/06/26 06:45:42;;;;;;;9.95;2.13;;;21.90;1.00;;;;;;5134759;27;20119;-28
2023/06/26 06:48:07;;;;;;;7.40;1.52;;;21.70;99.90;;;;;;5134702;27;20051;-28
2023/06/26 06:50:33;;;;;;;10.00;2.47;;;20.80;99.90;;;;;;5134695;27;20047;-27
2023/06/26 06:52:59;;;;;;;7.35;2.35;;;20.40;1.00;;;;;;5134390;28;20134;-28
2023/06/26 06:55:25;;;;;;;9.75;2.63;;;20.80;1.00;;;;;;5116418;28;20447;-27
2023/06/26 06:57:51;;;;;;;10.10;2.53;;;21.10;1.00;;;;;;5134675;28;20039;-27
2023/06/26 07:00:18;;;;;;;7.15;2.15;;;21.30;83.30;;;;;;5134612;28;20039;-27
2023/06/26 07:02:45;;;;;;;10.10;2.20;;;21.30;1.00;;;;;;5134619;28;20449;-28
2023/06/26 07:05:11;;;;;;;8.88;2.08;;;20.80;62.20;;;;;;5116180;28;20047;-27
2023/06/26 07:07:38;;;;;;;10.32;2.20;;;20.60;1.00;;;;;;5134565;28;20093;-28
2023/06/26 07:10:06;;;;;;;9.73;2.20;;;20.50;99.90;;;;;;5134151;28;20504;-28
2023/06/26 07:12:31;;;;;;;9.00;2.28;;;20.70;1.00;;;;;;5134517;28;20105;-28
2023/06/26 07:14:58;;;;;;;7.07;2.15;;;20.70;1.00;;;;;;5134429;28;20558;-27
2023/06/26 07:17:23;;;;;;;8.85;2.70;;;20.60;1.00;;;;;;5134731;28;20062;-27
2023/06/26 07:19:49;;;;;;;16.55;1.88;;;21.20;99.90;;;;;;5117100;28;20464;-28
2023/06/26 07:22:16;;;;;;;7.47;1.75;;;21.80;1.00;;;;;;5135016;28;20051;-28
2023/06/26 07:24:41;;;;;;;8.27;2.10;;;22.30;99.90;;;;;;5134384;28;20043;-28
2023/06/26 07:27:07;;;;;;;5.80;1.55;;;22.20;99.90;;;;;;5134355;28;20047;-29
2023/06/26 07:29:33;;;;;;;4.10;1.23;;;22.20;99.90;;;;;;5134161;27;20038;-27
2023/06/26 07:31:59;;;;;;;7.75;2.08;;;22.40;11.90;;;;;;5134309;28;20047;-27
2023/06/26 07:34:24;;;;;;;6.35;1.63;;;22.50;94.30;;;;;;5134814;28;20111;-27
2023/06/26 07:36:50;;;;;;;7.50;1.80;;;22.60;76.50;;;;;;5134301;28;20047;-26
2023/06/26 07:39:16;;;;;;;5.38;1.20;;;22.70;99.90;;;;;;5135089;28;20035;-27
2023/06/26 07:41:41;;;;;;;5.07;1.83;;;22.90;1.00;;;;;;5134290;28;20491;-27
2023/06/26 07:44:07;;;;;;;5.10;1.60;;;22.70;1.00;;;;;;5134407;28;20043;-27
2023/06/26 07:46:33;;;;;;;8.35;1.83;;;21.80;99.90;;;;;;5134454;28;20499;-27
2023/06/26 07:48:59;;;;;;;10.13;2.17;;;21.30;1.00;;;;;;5134085;28;20051;-28
2023/06/26 07:51:24;;;;;;;6.13;1.77;;;20.80;58.00;;;;;;5134635;28;20036;-29
2023/06/26 07:53:50;;;;;;;8.48;1.50;;;20.80;99.90;;;;;;5098426;28;20131;-28
2023/06/26 07:56:16;;;;;;;7.70;1.80;;;21.50;99.90;;;;;;5098859;28;20079;-28
2023/06/26 07:58:41;;;;;;;5.03;1.10;;;22.20;99.90;;;;;;5134091;28;20495;-27
2023/06/26 08:01:07;;;;;;;8.07;2.30;;;21.30;99.90;;;;;;5136417;27;20122;-28
2023/06/26 08:03:33;;;;;;;5.28;1.52;;;21.50;99.90;;;;;;5138326;27;20066;-27
2023/06/26 08:05:58;;;;;;;6.05;1.77;;;21.90;99.90;;;;;;5137774;27;20055;-28
2023/06/26 08:08:24;;;;;;;5.43;1.70;;;21.80;99.90;;;;;;5137581;27;20039;-27
2023/06/26 08:10:50;;;;;;;6.53;1.77;;;22.10;1.00;;;;;;5137656;27;20053;-27
2023/06/26 08:13:15;;;;;;;7.30;1.73;;;21.90;96.80;;;;;;5137887;27;20047;-28
2023/06/26 08:15:41;;;;;;;10.20;1.98;;;21.90;1.00;;;;;;5137471;27;20043;-27
2023/06/26 08:18:07;;;;;;;7.82;1.48;;;21.90;1.00;;;;;;5137772;27;20047;-27
2023/06/26 08:20:35;;;;;;;6.68;1.75;;;22.30;1.00;;;;;;5137358;27;20480;-27
2023/06/26 08:23:01;;;;;;;3.47;1.23;;;21.80;99.90;;;;;;5119132;27;20043;-28
2023/06/26 08:25:27;;;;;;;8.18;1.67;;;21.30;1.00;;;;;;5137949;27;20102;-28
2023/06/26 08:27:53;;;;;;;7.13;2.08;;;21.20;1.00;;;;;;5137084;27;20100;-26
2023/06/26 08:30:19;;;;;;;4.07;1.73;;;21.20;99.90;;;;;;5119109;27;20051;-27
2023/06/26 08:32:45;;;;;;;7.53;1.88;;;20.90;99.90;;;;;;5137247;27;20041;-28
2023/06/26 08:35:11;;;;;;;4.82;1.80;;;20.60;99.90;;;;;;5119408;27;20092;-27
2023/06/26 08:37:36;;;;;;;7.72;1.20;;;20.40;99.90;;;;;;5137551;27;20110;-27
2023/06/26 08:40:02;;;;;;;3.03;1.23;;;21.30;1.00;;;;;;5137100;27;20047;-29
2023/06/26 08:42:29;;;;;;;5.88;1.27;;;21.30;1.00;;;;;;5137910;27;20365;-28
2023/06/26 08:44:55;;;;;;;4.22;1.20;;;21.20;99.90;;;;;;5136999;27;20143;-28
2023/06/26 08:47:21;;;;;;;7.95;1.27;;;21.60;99.90;;;;;;5136918;27;20543;-28
2023/06/26 08:49:55;;;;;;;5.38;1.60;;;21.70;1.00;;;;;;5136839;27;20127;-27
2023/06/26 08:52:32;;;;;;;7.63;1.90;;;21.40;99.90;;;;;;5119078;27;20047;-28
2023/06/26 08:55:01;;;;;;;3.13;1.50;;;21.10;99.90;;;;;;5136811;27;20035;-28
2023/06/26 08:57:29;;;;;;;4.78;1.25;;;21.40;99.90;;;;;;5137233;27;20096;-27
2023/06/26 08:59:55;;;;;;;6.43;1.73;;;21.40;99.90;;;;;;5136621;27;20039;-28
2023/06/26 09:02:21;;;;;;;8.05;2.10;;;21.80;99.90;;;;;;5118598;27;20092;-28
2023/06/26 09:04:49;;;;;;;5.60;1.65;;;22.30;1.00;;;;;;5136961;27;20043;-28
2023/06/26 09:07:15;;;;;;;3.97;1.85;;;22.40;1.00;;;;;;5136529;27;20043;-28
2023/06/26 09:09:41;;;;;;;6.15;1.70;;;22.70;99.90;;;;;;5136416;27;20039;-28
2023/06/26 09:12:09;;;;;;;6.60;1.33;;;22.40;99.90;;;;;;5136006;27;20039;-28
2023/06/26 09:14:36;;;;;;;5.90;1.70;;;21.40;99.90;;;;;;5136396;27;20089;-28
2023/06/26 09:17:02;;;;;;;5.93;2.00;;;20.90;93.50;;;;;;5136335;27;20054;-28
2023/06/26 09:19:28;;;;;;;4.38;1.55;;;20.90;99.90;;;;;;5135964;27;20047;-28
2023/06/26 09:21:54;;;;;;;4.40;1.40;;;21.70;1.00;;;;;;5136251;27;20096;-28
2023/06/26 09:24:21;;;;;;;5.22;2.20;;;22.20;1.00;;;;;;5136693;27;20039;-29
2023/06/26 09:26:47;;;;;;;5.47;1.67;;;22.50;1.00;;;;;;5136108;27;20058;-28
2023/06/26 09:29:13;;;;;;;4.68;1.70;;;22.40;1.00;;;;;;5135933;27;20039;-28
2023/06/26 09:31:40;;;;;;;7.97;1.70;;;21.90;1.00;;;;;;5136066;27;20092;-26
2023/06/26 09:34:06;;;;;;;9.30;2.55;;;22.20;99.90;;;;;;5136836;27;20051;-27
2023/06/26 09:36:33;;;;;;;6.13;2.25;;;22.60;99.90;;;;;;5135927;27;20104;-28
2023/06/26 09:39:10;;;;;;;10.10;2.25;;;22.00;99.90;;;;;;5135896;27;20080;-28
2023/06/26 09:41:40;;;;;;;5.18;2.13;;;21.30;99.90;;;;;;5136452;27;20464;-27
2023/06/26 09:44:07;;;;;;;6.40;2.47;;;21.10;1.00;;;;;;5135781;27;20043;-27
2023/06/26 09:46:33;;;;;;;6.47;2.38;;;21.50;1.00;;;;;;5135451;27;20496;-27
2023/06/26 09:49:05;;;;;;;7.15;1.70;;;21.10;16.80;;;;;;5135643;27;20035;-27
2023/06/26 09:51:34;;;;;;;6.37;2.07;;;21.70;1.00;;;;;;5135739;27;20043;-28
2023/06/26 09:54:01;;;;;;;5.50;2.38;;;22.20;99.90;;;;;;5135876;27;20157;-28
2023/06/26 09:56:28;;;;;;;7.55;2.03;;;22.00;99.90;;;;;;5118138;27;20051;-27
2023/06/26 09:58:58;;;;;;;4.35;2.17;;;21.70;99.90;;;;;;5135513;27;20046;-27
2023/06/26 10:01:24;;;;;;;7.63;2.20;;;21.50;1.00;;;;;;5135431;27;20058;-28
2023/06/26 10:03:50;;;;;;;9.27;2.50;;;21.90;3.40;;;;;;5100320;27;20481;-27
2023/06/26 10:06:21;;;;;;;3.67;1.75;;;22.20;98.30;;;;;;5135373;27;20130;-28
2023/06/26 10:08:48;;;;;;;5.40;2.17;;;22.30;22.90;;;;;;5116983;27;20046;-27
2023/06/26 10:11:18;;;;;;;6.95;2.08;;;22.50;45.00;;;;;;5135255;27;20039;-29
2023/06/26 10:13:47;;;;;;;7.88;3.05;;;23.10;99.90;;;;;;5135280;27;20043;-28
2023/06/26 10:16:14;;;;;;;4.75;2.20;;;22.30;1.00;;;;;;5117013;27;20042;-28
2023/06/26 10:18:42;;;;;;;5.80;2.00;;;22.40;99.90;;;;;;5135168;27;20031;-28
2023/06/26 10:21:09;;;;;;;5.20;1.90;;;22.50;1.00;;;;;;5135206;27;20058;-28
2023/06/26 10:23:39;;;;;;;4.32;2.08;;;22.40;1.00;;;;;;5134926;27;20084;-28
2023/06/26 10:26:06;;;;;;;11.52;3.10;;;22.20;1.00;;;;;;5135877;27;20098;-28
2023/06/26 10:28:35;;;;;;;5.00;2.47;;;22.40;1.00;;;;;;5134828;27;20035;-27
2023/06/26 10:31:02;;;;;;;4.05;1.95;;;22.00;1.00;;;;;;5117158;27;20069;-28
2023/06/26 10:33:29;;;;;;;3.20;2.03;;;22.20;35.80;;;;;;5134971;27;20047;-28
2023/06/26 10:36:28;;;;;;;5.82;2.30;;;22.50;99.90;;;;;;5135006;27;20055;-27
2023/06/26 10:39:01;;;;;;;4.00;1.83;;;22.20;1.00;;;;;;5134883;27;20043;-27
2023/06/26 10:41:27;;;;;;;4.22;1.80;;;21.50;99.90;;;;;;5135715;27;20051;-28
2023/06/26 10:43:59;;;;;;;3.22;1.92;;;22.40;1.00;;;;;;5116546;27;20107;-28
2023/06/26 10:46:25;;;;;;;9.17;2.23;;;22.90;1.00;;;;;;5135085;27;20095;-27
2023/06/26 10:49:00;;;;;;;6.22;2.03;;;22.30;1.00;;;;;;5134599;27;20680;-27
2023/06/26 10:51:27;;;;;;;4.05;1.60;;;21.60;99.90;;;;;;5134637;27;20060;-27
2023/06/26 10:53:57;;;;;;;7.07;1.90;;;21.70;99.90;;;;;;5115752;28;20501;-27
2023/06/26 10:56:58;;;;;;;22.67;2.30;;;21.80;58.60;;;;;;5116571;28;20480;-28
2023/06/26 10:59:29;;;;;;;4.38;1.55;;;22.00;1.00;;;;;;5116218;28;20051;-28
2023/06/26 11:01:59;;;;;;;6.55;2.00;;;21.70;1.00;;;;;;5135443;28;20043;-27
2023/06/26 11:04:45;;;;;;;10.50;1.27;;;21.90;1.00;;;;;;5082884;28;20473;-27
2023/06/26 11:07:24;;;;;;;5.32;1.25;;;21.40;99.90;;;;;;5134921;28;20439;-27
2023/06/26 11:10:01;;;;;;;6.68;1.67;;;21.00;53.10;;;;;;5134537;28;20445;-26
2023/06/26 11:12:44;;;;;;;3.88;1.10;;;21.70;65.40;;;;;;5134763;28;20449;-27
2023/06/26 11:15:11;;;;;;;7.60;1.48;;;22.10;1.00;;;;;;5117241;28;20043;-28
2023/06/26 11:17:37;;;;;;;5.80;1.50;;;22.40;1.00;;;;;;5134972;28;20384;-28
2023/06/26 11:20:08;;;;;;;5.18;1.17;;;22.00;99.90;;;;;;5115996;28;20039;-28
2023/06/26 11:22:38;;;;;;;5.93;1.17;;;21.70;99.90;;;;;;5134437;28;20089;-27
2023/06/26 11:25:05;;;;;;;5.60;1.45;;;20.90;1.00;;;;;;5134378;28;20480;-28
2023/06/26 11:27:43;;;;;;;5.00;0.80;;;21.20;99.90;;;;;;5116320;28;20054;-27
2023/06/26 11:30:11;;;;;;;10.57;2.60;;;21.80;99.90;;;;;;5134305;28;20039;-27
2023/06/26 11:32:38;;;;;;;10.57;1.50;;;22.40;99.90;;;;;;5134021;28;20389;-28
2023/06/26 11:35:04;;;;;;;4.88;1.00;;;22.00;99.90;;;;;;5137374;27;20047;-28
2023/06/26 11:37:34;;;;;;;4.75;1.02;;;21.30;1.00;;;;;;5138294;27;20054;-28
2023/06/26 11:40:00;;;;;;;3.38;0.88;;;21.90;99.90;;;;;;5120513;27;20039;-27
2023/06/26 11:42:25;;;;;;;5.80;1.70;;;22.30;99.90;;;;;;5120368;27;20043;-28
2023/06/26 11:44:52;;;;;;;8.50;2.28;;;22.60;99.90;;;;;;5138182;27;20120;-27
2023/06/26 11:47:20;;;;;;;4.38;1.00;;;22.30;99.90;;;;;;5103010;27;20071;-27
2023/06/26 11:49:47;;;;;;;3.15;1.17;;;22.50;99.90;;;;;;5135552;27;20053;-29
2023/06/26 11:52:14;;;;;;;10.23;1.23;;;22.20;99.90;;;;;;5137689;27;20043;-28
2023/06/26 11:54:40;;;;;;;6.15;1.23;;;22.30;99.90;;;;;;5129346;27;20408;-28
2023/06/26 11:57:06;;;;;;;5.20;1.10;;;22.50;99.90;;;;;;5133638;27;20543;-27
2023/06/26 11:59:35;;;;;;;3.85;1.27;;;22.70;99.90;;;;;;5137868;27;20126;-28
2023/06/26 12:02:05;;;;;;;6.07;1.67;;;22.00;99.90;;;;;;5137656;27;20122;-28
2023/06/26 12:04:31;;;;;;;3.10;0.85;;;21.60;99.90;;;;;;5115660;27;20054;-28
2023/06/26 12:06:57;;;;;;;5.43;1.20;;;21.60;1.00;;;;;;5119507;27;20046;-28
2023/06/26 12:09:24;;;;;;;8.95;2.03;;;21.20;99.90;;;;;;5137549;27;20039;-28
2023/06/26 12:11:54;;;;;;;6.28;1.65;;;21.10;1.00;;;;;;5137700;27;20061;-27
2023/06/26 12:14:21;;;;;;;5.18;1.63;;;21.00;1.00;;;;;;5118512;27;20083;-28
2023/06/26 12:16:47;;;;;;;4.80;1.27;;;21.10;1.00;;;;;;5137819;27;20074;-27
2023/06/26 12:19:14;;;;;;;8.50;1.58;;;21.30;1.00;;;;;;5137495;27;20464;-27
2023/06/26 12:21:46;;;;;;;4.13;1.33;;;21.70;99.90;;;;;;5137440;27;20047;-27
2023/06/26 12:24:21;;;;;;;4.57;1.73;;;22.10;99.90;;;;;;5137970;27;20504;-28
2023/06/26 12:26:51;;;;;;;6.22;1.20;;;22.40;99.90;;;;;;5137443;27;20058;-29
2023/06/26 12:29:18;;;;;;;6.22;1.17;;;22.10;34.80;;;;;;5116730;27;20075;-27
2023/06/26 12:31:49;;;;;;;8.00;1.65;;;21.40;99.90;;;;;;5136649;27;20043;-26
2023/06/26 12:34:18;;;;;;;4.95;1.33;;;21.60;1.00;;;;;;5125880;27;20069;-28
2023/06/26 12:36:51;;;;;;;4.88;1.10;;;21.80;99.90;;;;;;5116666;28;20048;-28
2023/06/26 12:39:18;;;;;;;6.05;1.10;;;22.50;1.00;;;;;;5116640;28;20466;-28
2023/06/26 12:41:54;;;;;;;5.68;1.13;;;21.70;1.00;;;;;;5116150;28;20408;-27
2023/06/26 12:44:30;;;;;;;9.52;1.30;;;21.40;92.60;;;;;;5107098;28;20051;-28